Pagina principale
METAR-TAF:

METAR-TAF

Aeroporti :

Aeroporto di Bologna-Borgo Panigale

Bologna, Italia

latitudine: 44-32N, longitudine: 011-18E, altezza: 36 m

Osservazione

Il bollettino è stato emesso 15 minuti fa, alle 07:20 UTC
Vento 4 kt da ovest/nord-ovest
Temperature 7°C
Umidità 100%
Pressione 1027 hPa
Visibilità: 5000 m
Nubi sparse ad un'altezza di 3500 ft
Nubi sparse ad un'altezza di 5000 ft
foschia

METAR: LIPE 160720Z 29004KT 5000 BR SCT035 SCT050 07/07 Q1027

Ora: 08:35 (07:35 UTC)

Previsione

Il bollettino è stato emesso 2 ore e 35 minuti fa, alle 05:00 UTC
Previsione valida dal 16 alle 06 UTC al 17 alle 06 UTC
Vento 4 kt da direzioni variabili
Visibilità: 8000 m
Nubi sparse ad un'altezza di 2000 ft
Temporaneamente
dal 16 alle 06 UTC al 16 alle 08 UTC
Visibilità: 2000 m
foschia
Evoluzione graduale
dal 16 alle 08 UTC al 16 alle 10 UTC
Vento 10 kt da est/nord-est

TAF: LIPE 160500Z 1606/1706 VRB04KT 8000 SCT020 TEMPO 1606/1608 2000 BR BECMG 1608/1610 06010KT

Osservazioni e previsioni meteorologiche di più di 4000 aeroporti (messaggi METAR e TAF).

Le stazioni disponibili sono rappresentate dai dischi gialli e rossi sulla carta.

Puntare il mouse per vedere il nome della stazione.

Clicca sopra per visualizzare le osservazioni e previsioni meteorologiche.

Per cambiare la mappa : fare clic sui pulsanti verdi con una croce nera per ingrandire, il pulsante verde con un trattino per diminuire, o sulla freccia verde per le mappe adiacenti.


METAR-TAF: